Sonic Adventure (DX): Boss Rankings

Records: Times | Rings | Scores | Races | Bosses | Freestyle
Leaders: Times | Rings | Scores | Races | Bosses | Freestyle | Overall
Rank Player Percent Points Date
1 Sonicspeedruner 98.4% 32 07-25-16
2 Gamepro011 97.0% 62 07-25-16
3 Austinf 92.8% 149 07-25-16
4 DarkPolarNight 91.8% 171 07-25-16
5 Jawzun 89.7% 214 07-25-16
6 drminus 89.6% 217 07-25-16
7 Parax 87.7% 256 07-25-16
8 ike6252 87.2% 267 07-25-16
9 Dashjump 85.1% 311 07-25-16
10 Avento128bits 84.7% 319 07-25-16
11 Coolfansonic 81.8% 381 07-25-16
12 DarkspinesSonic 81.3% 390 07-25-16
13 THC98 79.0% 440 07-25-16
14 F-Man 77.0% 481 07-25-16
15 TheRealShadnic 76.6% 490 07-25-16
16 Marth 75.9% 505 07-25-16
17 yoshifan 74.2% 540 07-25-16
18 Mariobutch 73.9% 545 07-25-16
19 PfoSonic 72.9% 567 07-25-16
20 InferSaime 72.6% 574 07-25-16
21 HyperSonic7701 70.6% 615 07-25-16
22 RPGnutter 69.8% 632 07-25-16
23 Paragod 68.3% 663 07-25-16
24 mike89 67.7% 675 07-25-16
25 frankoredstrato 67.6% 678 07-25-16
26 Groudon199 63.5% 765 07-25-16
27 sonicam 63.4% 766 07-25-16
28 SadisticMystic 63.2% 770 07-25-16
29 Stefan 61.5% 805 07-25-16
30 Diamond 60.4% 828 07-25-16
31 Combo 58.0% 879 07-25-16
32 bertin 57.7% 886 07-25-16
33 xXMegaManXx 56.5% 910 07-25-16
34 SkyLights 55.0% 943 07-25-16
35 Arch 49.3% 1062 07-25-16
35 francisco 49.3% 1062 07-25-16
37 Fr3nZy 49.2% 1064 07-25-16
38 OmegaDJ 47.3% 1103 07-25-16
39 Andrea Ritsu 47.0% 1110 07-25-16
40 Omega Rafael Santos 45.8% 1134 07-25-16
41 P1 Pause 44.6% 1160 07-25-16
42 magnum12 42.4% 1207 07-25-16
43 VeritasDL 41.6% 1223 07-25-16
44 Auriman1 38.5% 1289 07-25-16
45 James_Bertolli 36.1% 1339 07-25-16
46 teamblackarms 34.6% 1370 07-25-16
47 Hunters13 34.1% 1380 07-25-16
48 FuzZerd 33.5% 1392 07-25-16
49 Drakodan 33.3% 1398 07-25-16
50 Psymar 32.6% 1411 07-25-16
51 Quartz 32.2% 1420 07-25-16
52 eggFL 32.1% 1423 07-25-16
53 Cyan Ryan 31.8% 1429 07-25-16
54 Jerzia 31.1% 1443 07-25-16
55 GerbilSoft 31.0% 1446 07-25-16
56 elecmouse101 30.5% 1455 07-25-16
57 Thorn 30.4% 1458 07-25-16
58 Webber3000 30.1% 1465 07-25-16
59 videogamemaster777 29.8% 1470 07-25-16
60 Mo Player Banned 28.5% 1498 07-25-16
61 Turbos 28.4% 1499 07-25-16
62 Termon 27.1% 1526 07-25-16
63 Nimrod 26.6% 1538 07-25-16
64 Dave Cramer 26.2% 1545 07-25-16
65 Flying Fox 25.9% 1552 07-25-16
66 buddychaos0415 25.2% 1566 07-25-16
67 nuckrieg 25.2% 1567 07-25-16
68 Shadow Jacky 24.0% 1591 07-25-16
69 Cream147 21.6% 1643 07-25-16
70 supersonicfan 21.4% 1646 07-25-16
71 MiStEr_ShAoLiN 21.1% 1653 07-25-16
72 NintenDan 20.9% 1656 07-25-16
73 thewaytodawnnn 20.8% 1658 07-25-16
74 itsPersonnal 20.5% 1665 07-25-16
75 The T 20.4% 1667 07-25-16
76 supersonic465 20.2% 1672 07-25-16
77 Cybrax 20.1% 1673 07-25-16
78 Aitamen 19.7% 1681 07-25-16
79 SonicWinDX 19.5% 1687 07-25-16
80 Cruizer 19.1% 1695 07-25-16
81 VMU Player Banned 17.7% 1723 07-25-16
82 Game_Complete 17.3% 1733 07-25-16
83 The Great Lord Mick 16.7% 1745 07-25-16
84 Questionguy555 16.0% 1759 07-25-16
85 GreatStar 15.9% 1761 07-25-16
86 Spinballwizard 15.4% 1773 07-25-16
87 Sondow 14.6% 1789 07-25-16
88 sonicandamy 14.2% 1798 07-25-16
89 Destroyer121121 14.0% 1802 07-25-16
90 GarnetPrincess 13.5% 1812 07-25-16
91 SonicAD 12.1% 1842 07-25-16
92 Don 11.4% 1856 07-25-16
93 Miles9999 11.2% 1861 07-25-16
94 Siavash Tazari 10.9% 1867 07-25-16
95 BigAL49 10.4% 1876 07-25-16
96 Cutiefox 10.4% 1878 07-25-16
97 Psyknux 10.2% 1882 07-25-16
98 Werey 9.7% 1891 07-25-16
99 knuckles_sonic8 9.7% 1892 07-25-16
100 joecoolgames 9.5% 1895 07-25-16
101 mauserman 9.2% 1903 07-25-16
102 EngiNerd 9.0% 1907 07-25-16
103 Sonic Singularity 8.7% 1912 07-25-16
104 dShadow 8.5% 1916 07-25-16
105 Hipertails12 8.3% 1920 07-25-16
106 Aiko 8.1% 1926 07-25-16
107 Shanekilz 8.0% 1927 07-25-16
108 Therio 7.6% 1936 07-25-16
109 Mastakirby 7.4% 1939 07-25-16
110 chainchumper 6.9% 1950 07-25-16
110 TommyeAsY 6.9% 1950 07-25-16
112 FocusSight64 6.8% 1952 07-25-16
112 TheChaosEmeraIds 6.8% 1952 07-25-16
114 sonic29887 6.7% 1954 07-25-16
115 Chao_Fan 6.7% 1955 07-25-16
116 HHNNBBHHN 6.1% 1968 07-25-16
117 djmat 6.0% 1970 07-25-16
117 tal39h 6.0% 1970 07-25-16
119 paulie9990 5.8% 1974 07-25-16
120 Sogeking 5.5% 1980 07-25-16
121 Brian_pso 5.0% 1990 07-25-16
121 SuperBlitzCraig 5.0% 1990 07-25-16
123 Chawkk 5.0% 1991 07-25-16
124 SilvertheAlmighty 4.6% 1999 07-25-16
125 MK 4.5% 2000 07-25-16
126 SpinDashMaster 4.5% 2001 07-25-16
127 MastaToken 4.1% 2008 07-25-16
128 Badlex727 3.8% 2015 07-25-16
129 Sonique Hedgehog 3.8% 2016 07-25-16
129 SpiritDragon1995 3.8% 2016 07-25-16
131 KinkyCadence 3.5% 2021 07-25-16
132 Mad Andy 3.4% 2023 07-25-16
133 N 3.4% 2024 07-25-16
133 PsyBorg 3.4% 2024 07-25-16
135 FSSRandomvids 3.2% 2027 07-25-16
136 koinu93 3.0% 2033 07-25-16
136 Rolken 3.0% 2033 07-25-16
138 Xia 2.9% 2035 07-25-16
139 andres430 2.6% 2041 07-25-16
140 crazy1993 2.2% 2048 07-25-16
140 dabestgamer 2.2% 2048 07-25-16
142 shadowblast63 Player Banned 2.2% 2049 07-25-16
143 Illidan 2.1% 2051 07-25-16
144 Richied 2.0% 2053 07-25-16
145 DanielTheFalcon 1.8% 2057 07-25-16
146 gamer1245 1.8% 2058 07-25-16
146 Iwannabelink 1.8% 2058 07-25-16
148 oTaiIilLsS 1.4% 2066 07-25-16
149 soniccoloursunleashed 1.3% 2067 07-25-16
150 niscool 1.3% 2068 07-25-16
151 Redd 1.1% 2072 07-25-16
152 ieatatsonic 1.0% 2073 07-25-16
153 LinksDarkArrows 0.8% 2078 07-25-16
154 Lil_Dude 0.8% 2079 07-25-16
155 Cbwade15 0.4% 2086 07-25-16
156 neaolas 0.3% 2088 07-25-16
157 BlankTH 0.2% 2091 07-25-16
158 Heroes_Hater 0.1% 2092 07-25-16
159 S-MS32X-S 0.0% 2094 07-25-16
160 KaM Mark MaK 0.0% 2096 07-25-16
160 MegabombBlade 0.0% 2096 07-25-16

This page is using the New Data Table System. [FUTURE]

Game ID: 3 | Category ID: 6
Hits: 4,351 | Hits This Month: 19 | DB Calls: 24 | Mem Usage: 5.34 MB | Time: 0.61s | Printable

The Sonic Center v3.9
Copyright 2003-2011 by The Sonic Center Team.